Terminal Aerodrome Forecast
Issued by NWS Newport/Morehead City, NC

Home | Current Version | Previous Version | Graphics & Text | Print | Product List | Glossary On
Versions: 1 2 3 4 5 6 7 8 9 10 11 12 13 14 15 16 17 18
000
FTUS42 KMHX 211100
TAFEWN
TAF
KEWN 211130Z 2112/2212 34010KT P6SM OVC007
     FM211500 33010G18KT P6SM OVC015
     FM211700 29010G18KT P6SM BKN100
     FM212200 23005KT P6SM SCT100=

USA.gov is the U.S. government's official web portal to all federal, state and local government web resources and services.